createdAt,value
2023-05-10T00:06:18.189Z,7.63
2023-05-10T00:16:20.756Z,7.30
2023-05-10T00:26:23.192Z,7.07
2023-05-10T00:36:28.905Z,7.88
2023-05-10T00:46:31.948Z,8.30
2023-05-10T00:56:35.025Z,7.67
2023-05-10T01:06:37.622Z,8.20
2023-05-10T01:16:43.165Z,7.27
2023-05-10T01:27:10.403Z,7.13
2023-05-10T01:37:21.458Z,8.77
2023-05-10T01:47:43.490Z,6.20
2023-05-10T01:57:50.658Z,7.23
2023-05-10T02:07:53.720Z,7.63
2023-05-10T02:17:58.598Z,8.20
2023-05-10T02:28:04.493Z,6.50
2023-05-10T02:38:08.528Z,9.97
2023-05-10T02:48:11.284Z,5.28
2023-05-10T02:58:13.787Z,6.63
2023-05-10T03:08:16.294Z,7.23
2023-05-10T03:18:34.893Z,5.30
2023-05-10T03:28:39.473Z,6.50
2023-05-10T03:38:42.869Z,8.37
2023-05-10T03:48:45.570Z,5.97
2023-05-10T03:58:48.278Z,6.75
2023-05-10T04:08:50.853Z,9.80
2023-05-10T04:18:54.141Z,8.27
2023-05-10T04:28:56.656Z,8.38
2023-05-10T04:38:59.337Z,10.47
2023-05-10T04:49:02.144Z,7.87
2023-05-10T04:59:04.707Z,8.53
2023-05-10T05:09:07.362Z,10.35
2023-05-10T05:19:09.902Z,11.97
2023-05-10T05:29:14.024Z,12.23
2023-05-10T05:39:16.973Z,7.78
2023-05-10T05:49:19.496Z,10.53
2023-05-10T05:59:22.837Z,7.23
2023-05-10T06:09:25.652Z,9.35
2023-05-10T06:19:28.345Z,8.27
2023-05-10T06:29:30.818Z,7.53
2023-05-10T06:39:33.597Z,9.03
2023-05-10T06:49:36.546Z,8.55
2023-05-10T06:59:39.134Z,6.07
2023-05-10T07:09:41.809Z,5.90
2023-05-10T07:19:44.368Z,6.22
2023-05-10T07:29:46.954Z,7.37
2023-05-10T07:39:49.410Z,5.77
2023-05-10T07:49:52.031Z,4.70
2023-05-10T07:59:54.526Z,3.67
2023-05-10T08:09:57.178Z,3.73
2023-05-10T08:19:59.702Z,4.23
2023-05-10T08:30:02.176Z,3.55
2023-05-10T08:40:05.207Z,3.30
2023-05-10T08:50:08.585Z,3.23
2023-05-10T09:00:12.236Z,3.10
2023-05-10T09:10:16.361Z,4.37
2023-05-10T09:20:18.816Z,3.10
2023-05-10T09:30:27.454Z,2.95
2023-05-10T09:40:31.126Z,4.57
2023-05-10T09:50:35.226Z,2.83
2023-05-10T10:00:40.164Z,2.80
2023-05-10T10:10:46.387Z,2.50
2023-05-10T10:20:49.208Z,3.37
2023-05-10T10:30:55.771Z,2.53
2023-05-10T10:41:11.818Z,2.85
2023-05-10T10:51:14.703Z,3.73
2023-05-10T11:01:19.685Z,3.13
2023-05-10T11:11:23.571Z,2.60
2023-05-10T11:21:26.007Z,3.37
2023-05-10T11:31:29.344Z,3.70
2023-05-10T11:41:32.700Z,3.33
2023-05-10T11:51:40.381Z,3.43
2023-05-10T12:01:43.134Z,5.13
2023-05-10T12:11:46.065Z,4.13
2023-05-10T12:21:49.259Z,4.13
2023-05-10T12:31:51.833Z,4.40
2023-05-10T12:41:54.354Z,3.08
2023-05-10T12:51:56.807Z,3.93
2023-05-10T13:01:59.305Z,3.40
2023-05-10T13:12:02.054Z,3.40
2023-05-10T13:22:04.849Z,3.10
2023-05-10T13:32:07.508Z,3.23
2023-05-10T13:42:09.980Z,5.13
2023-05-10T13:52:13.064Z,3.90
2023-05-10T14:02:15.547Z,2.97
2023-05-10T14:12:17.983Z,6.73
2023-05-10T14:22:20.522Z,4.63
2023-05-10T14:32:23.037Z,3.83
2023-05-10T14:42:25.477Z,3.73
2023-05-10T14:52:27.926Z,3.20
2023-05-10T15:02:32.315Z,3.53
2023-05-10T15:12:35.329Z,2.67
2023-05-10T15:22:37.863Z,5.00
2023-05-10T15:32:41.212Z,3.15
2023-05-10T15:42:43.815Z,3.00
2023-05-10T15:52:46.382Z,2.93
2023-05-10T16:02:49.220Z,3.88
2023-05-10T16:12:51.978Z,2.27
2023-05-10T16:22:54.470Z,3.03
2023-05-10T16:32:58.181Z,6.63
2023-05-10T16:43:00.819Z,5.25
2023-05-10T16:53:03.374Z,3.87
2023-05-10T17:03:06.210Z,3.33
2023-05-10T17:13:10.415Z,3.00
2023-05-10T17:23:13.355Z,3.97
2023-05-10T17:33:15.911Z,5.30
2023-05-10T17:43:18.423Z,5.45
2023-05-10T17:53:20.807Z,5.50
2023-05-10T18:03:23.786Z,3.97
2023-05-10T18:13:26.648Z,4.93
2023-05-10T18:23:29.058Z,6.60
2023-05-10T18:33:31.708Z,3.53
2023-05-10T18:43:34.515Z,6.10
2023-05-10T18:53:37.381Z,3.00
2023-05-10T19:03:39.928Z,3.77
2023-05-10T19:13:42.905Z,3.83
2023-05-10T19:23:46.191Z,5.15
2023-05-10T19:33:49.163Z,4.47
2023-05-10T19:43:52.764Z,3.97
2023-05-10T19:53:55.486Z,3.22
2023-05-10T20:03:58.022Z,5.60
2023-05-10T20:14:00.470Z,3.20
2023-05-10T20:24:03.067Z,4.93
2023-05-10T20:34:05.805Z,6.30
2023-05-10T20:44:08.500Z,3.43
2023-05-10T20:54:10.951Z,8.13
2023-05-10T21:04:13.405Z,3.88
2023-05-10T21:14:16.500Z,7.10
2023-05-10T21:24:18.924Z,4.37
2023-05-10T21:34:21.466Z,4.05
2023-05-10T21:44:23.967Z,3.40
2023-05-10T21:54:26.403Z,6.43
2023-05-10T22:04:28.854Z,4.00
2023-05-10T22:14:31.296Z,3.88
2023-05-10T22:24:33.855Z,4.20
2023-05-10T22:34:36.581Z,3.50
2023-05-10T22:44:39.135Z,4.25
2023-05-10T22:54:41.653Z,3.30
2023-05-10T23:04:44.183Z,3.67
2023-05-10T23:14:47.665Z,3.83
2023-05-10T23:24:50.172Z,4.53
2023-05-10T23:34:53.299Z,4.17
2023-05-10T23:44:55.865Z,6.10
2023-05-10T23:55:54.268Z,3.33
